sensor_id;sensor_type;location;lat;lon;timestamp;pressure;altitude;pressure_sealevel;temperature;humidity
57024;BME280;42916;54.346;18.562;2023-05-19T00:02:01;101823.56;;;4.99;88.01
57024;BME280;42916;54.346;18.562;2023-05-19T00:04:31;101815.05;;;4.98;88.62
57024;BME280;42916;54.346;18.562;2023-05-19T00:06:59;101817.56;;;4.98;88.67
57024;BME280;42916;54.346;18.562;2023-05-19T00:09:26;101819.47;;;4.97;88.66
57024;BME280;42916;54.346;18.562;2023-05-19T00:11:54;101818.27;;;4.95;88.69
57024;BME280;42916;54.346;18.562;2023-05-19T00:14:22;101816.14;;;4.92;88.67
57024;BME280;42916;54.346;18.562;2023-05-19T00:16:49;101818.81;;;4.90;88.95
57024;BME280;42916;54.346;18.562;2023-05-19T00:19:16;101821.50;;;4.87;89.19
57024;BME280;42916;54.346;18.562;2023-05-19T00:21:43;101816.14;;;4.84;89.18
57024;BME280;42916;54.346;18.562;2023-05-19T00:24:09;101816.79;;;4.80;89.03
57024;BME280;42916;54.346;18.562;2023-05-19T00:26:36;101819.40;;;4.75;89.18
57024;BME280;42916;54.346;18.562;2023-05-19T00:29:04;101820.45;;;4.70;89.05
57024;BME280;42916;54.346;18.562;2023-05-19T00:31:31;101822.92;;;4.68;89.77
57024;BME280;42916;54.346;18.562;2023-05-19T00:34:00;101823.27;;;4.66;89.73
57024;BME280;42916;54.346;18.562;2023-05-19T00:36:27;101825.11;;;4.65;89.95
57024;BME280;42916;54.346;18.562;2023-05-19T00:38:56;101823.56;;;4.64;89.92
57024;BME280;42916;54.346;18.562;2023-05-19T00:41:22;101825.35;;;4.61;90.08
57024;BME280;42916;54.346;18.562;2023-05-19T00:43:49;101822.73;;;4.57;90.15
57024;BME280;42916;54.346;18.562;2023-05-19T00:46:17;101824.11;;;4.54;90.35
57024;BME280;42916;54.346;18.562;2023-05-19T00:48:44;101824.19;;;4.52;90.88
57024;BME280;42916;54.346;18.562;2023-05-19T00:51:12;101822.45;;;4.52;90.90
57024;BME280;42916;54.346;18.562;2023-05-19T00:53:43;101823.55;;;4.51;91.23
57024;BME280;42916;54.346;18.562;2023-05-19T00:56:14;101823.42;;;4.51;91.23
57024;BME280;42916;54.346;18.562;2023-05-19T00:58:45;101822.85;;;4.49;91.45
57024;BME280;42916;54.346;18.562;2023-05-19T01:01:12;101821.17;;;4.49;91.82
57024;BME280;42916;54.346;18.562;2023-05-19T01:03:40;101820.49;;;4.47;91.46
57024;BME280;42916;54.346;18.562;2023-05-19T01:06:08;101819.27;;;4.44;91.73
57024;BME280;42916;54.346;18.562;2023-05-19T01:08:37;101823.13;;;4.40;91.59
57024;BME280;42916;54.346;18.562;2023-05-19T01:11:04;101820.71;;;4.36;91.66
57024;BME280;42916;54.346;18.562;2023-05-19T01:13:33;101825.34;;;4.33;92.14
57024;BME280;42916;54.346;18.562;2023-05-19T01:24:28;101823.53;;;4.27;92.40
57024;BME280;42916;54.346;18.562;2023-05-19T01:32:40;101825.96;;;4.26;92.85
57024;BME280;42916;54.346;18.562;2023-05-19T01:35:08;101825.13;;;4.24;92.83
57024;BME280;42916;54.346;18.562;2023-05-19T01:37:38;101819.92;;;4.21;92.96
57024;BME280;42916;54.346;18.562;2023-05-19T01:40:09;101816.87;;;4.20;93.31
57024;BME280;42916;54.346;18.562;2023-05-19T01:42:37;101815.40;;;4.18;93.46
57024;BME280;42916;54.346;18.562;2023-05-19T01:45:06;101820.62;;;4.18;93.54
57024;BME280;42916;54.346;18.562;2023-05-19T01:47:40;101816.85;;;4.18;93.71
57024;BME280;42916;54.346;18.562;2023-05-19T01:50:07;101824.04;;;4.20;93.83
57024;BME280;42916;54.346;18.562;2023-05-19T01:52:34;101821.75;;;4.21;93.79
57024;BME280;42916;54.346;18.562;2023-05-19T01:55:01;101821.17;;;4.21;94.18
57024;BME280;42916;54.346;18.562;2023-05-19T02:08:29;101814.23;;;4.08;94.37
57024;BME280;42916;54.346;18.562;2023-05-19T02:11:07;101808.67;;;4.05;94.44
57024;BME280;42916;54.346;18.562;2023-05-19T02:13:42;101809.13;;;4.04;94.88
57024;BME280;42916;54.346;18.562;2023-05-19T02:16:10;101807.98;;;4.03;95.34
57024;BME280;42916;54.346;18.562;2023-05-19T02:18:39;101804.95;;;4.03;95.51
57024;BME280;42916;54.346;18.562;2023-05-19T02:21:11;101804.31;;;4.04;95.29
57024;BME280;42916;54.346;18.562;2023-05-19T02:23:39;101807.88;;;4.06;95.37
57024;BME280;42916;54.346;18.562;2023-05-19T02:26:07;101807.27;;;4.06;95.35
57024;BME280;42916;54.346;18.562;2023-05-19T02:28:34;101807.03;;;4.05;95.08
57024;BME280;42916;54.346;18.562;2023-05-19T02:31:02;101804.92;;;4.05;95.36
57024;BME280;42916;54.346;18.562;2023-05-19T02:33:30;101804.23;;;4.08;95.63
57024;BME280;42916;54.346;18.562;2023-05-19T02:35:57;101807.70;;;4.10;95.65
57024;BME280;42916;54.346;18.562;2023-05-19T02:38:24;101805.27;;;4.12;95.67
57024;BME280;42916;54.346;18.562;2023-05-19T02:40:52;101802.31;;;4.16;95.78
57024;BME280;42916;54.346;18.562;2023-05-19T02:43:19;101801.39;;;4.20;95.98
57024;BME280;42916;54.346;18.562;2023-05-19T02:45:46;101797.80;;;4.22;95.74
57024;BME280;42916;54.346;18.562;2023-05-19T02:48:13;101797.80;;;4.20;95.74
57024;BME280;42916;54.346;18.562;2023-05-19T02:50:40;101799.70;;;4.19;95.51
57024;BME280;42916;54.346;18.562;2023-05-19T02:53:06;101796.01;;;4.18;95.99
57024;BME280;42916;54.346;18.562;2023-05-19T02:55:33;101794.05;;;4.20;96.03
57024;BME280;42916;54.346;18.562;2023-05-19T02:58:00;101793.05;;;4.22;96.03
57024;BME280;42916;54.346;18.562;2023-05-19T03:00:27;101800.91;;;4.26;96.01
57024;BME280;42916;54.346;18.562;2023-05-19T03:02:54;101792.63;;;4.32;96.35
57024;BME280;42916;54.346;18.562;2023-05-19T03:05:20;101797.98;;;4.38;95.91
57024;BME280;42916;54.346;18.562;2023-05-19T03:07:47;101799.91;;;4.42;96.09
57024;BME280;42916;54.346;18.562;2023-05-19T03:10:14;101800.20;;;4.44;96.14
57024;BME280;42916;54.346;18.562;2023-05-19T03:12:41;101801.63;;;4.47;96.39
57024;BME280;42916;54.346;18.562;2023-05-19T03:15:08;101796.07;;;4.51;96.44
57024;BME280;42916;54.346;18.562;2023-05-19T03:17:35;101799.59;;;4.59;96.12
57024;BME280;42916;54.346;18.562;2023-05-19T03:20:01;101797.22;;;4.63;96.10
57024;BME280;42916;54.346;18.562;2023-05-19T03:22:32;101802.95;;;4.69;96.35
57024;BME280;42916;54.346;18.562;2023-05-19T03:24:58;101799.13;;;4.77;96.40
57024;BME280;42916;54.346;18.562;2023-05-19T03:27:25;101795.51;;;4.85;96.20
57024;BME280;42916;54.346;18.562;2023-05-19T03:29:52;101798.95;;;4.93;96.41
57024;BME280;42916;54.346;18.562;2023-05-19T03:32:19;101796.92;;;4.99;96.51
57024;BME280;42916;54.346;18.562;2023-05-19T03:34:46;101798.41;;;5.09;96.96
57024;BME280;42916;54.346;18.562;2023-05-19T03:37:13;101803.52;;;5.24;97.00
57024;BME280;42916;54.346;18.562;2023-05-19T03:39:40;101801.51;;;5.43;97.50
57024;BME280;42916;54.346;18.562;2023-05-19T03:42:06;101803.16;;;5.61;97.35
57024;BME280;42916;54.346;18.562;2023-05-19T03:44:33;101804.18;;;5.80;97.60
57024;BME280;42916;54.346;18.562;2023-05-19T03:47:00;101807.23;;;5.98;97.39
57024;BME280;42916;54.346;18.562;2023-05-19T03:49:29;101810.55;;;6.14;97.26
57024;BME280;42916;54.346;18.562;2023-05-19T03:52:25;101813.86;;;6.29;97.05
57024;BME280;42916;54.346;18.562;2023-05-19T03:54:57;101818.28;;;6.43;96.99
57024;BME280;42916;54.346;18.562;2023-05-19T03:57:24;101816.34;;;6.57;96.57
57024;BME280;42916;54.346;18.562;2023-05-19T03:59:51;101817.14;;;6.70;96.15
57024;BME280;42916;54.346;18.562;2023-05-19T04:02:17;101816.61;;;6.83;95.87
57024;BME280;42916;54.346;18.562;2023-05-19T04:04:44;101813.41;;;6.95;95.50
57024;BME280;42916;54.346;18.562;2023-05-19T04:07:11;101816.80;;;7.07;95.20
57024;BME280;42916;54.346;18.562;2023-05-19T04:09:38;101816.33;;;7.18;94.95
57024;BME280;42916;54.346;18.562;2023-05-19T04:12:05;101817.17;;;7.27;94.77
57024;BME280;42916;54.346;18.562;2023-05-19T04:14:32;101813.93;;;7.34;94.26
57024;BME280;42916;54.346;18.562;2023-05-19T04:16:58;101815.33;;;7.43;94.11
57024;BME280;42916;54.346;18.562;2023-05-19T04:19:27;101811.78;;;7.51;93.47
57024;BME280;42916;54.346;18.562;2023-05-19T04:21:55;101809.88;;;7.61;93.26
57024;BME280;42916;54.346;18.562;2023-05-19T04:24:22;101808.63;;;7.70;93.05
57024;BME280;42916;54.346;18.562;2023-05-19T04:26:49;101810.70;;;7.79;92.69
57024;BME280;42916;54.346;18.562;2023-05-19T04:29:16;101813.79;;;7.89;92.01
57024;BME280;42916;54.346;18.562;2023-05-19T04:31:44;101807.56;;;7.96;92.04
57024;BME280;42916;54.346;18.562;2023-05-19T04:34:11;101806.66;;;8.03;91.33
57024;BME280;42916;54.346;18.562;2023-05-19T04:36:38;101806.94;;;8.09;91.17
57024;BME280;42916;54.346;18.562;2023-05-19T04:39:05;101803.95;;;8.16;90.54
57024;BME280;42916;54.346;18.562;2023-05-19T04:41:35;101808.77;;;8.22;90.31
57024;BME280;42916;54.346;18.562;2023-05-19T04:44:06;101809.81;;;8.29;89.93
57024;BME280;42916;54.346;18.562;2023-05-19T04:46:36;101808.91;;;8.38;89.68
57024;BME280;42916;54.346;18.562;2023-05-19T04:49:04;101812.46;;;8.44;89.61
57024;BME280;42916;54.346;18.562;2023-05-19T04:51:30;101819.94;;;8.49;89.31
57024;BME280;42916;54.346;18.562;2023-05-19T04:53:58;101813.66;;;8.54;88.98
57024;BME280;42916;54.346;18.562;2023-05-19T04:56:26;101815.81;;;8.57;88.63
57024;BME280;42916;54.346;18.562;2023-05-19T04:58:55;101814.02;;;8.58;88.00
57024;BME280;42916;54.346;18.562;2023-05-19T05:01:22;101817.02;;;8.61;88.25
57024;BME280;42916;54.346;18.562;2023-05-19T05:03:56;101814.11;;;8.66;87.94
57024;BME280;42916;54.346;18.562;2023-05-19T05:06:24;101819.17;;;8.72;87.46
57024;BME280;42916;54.346;18.562;2023-05-19T05:08:52;101821.01;;;8.76;87.25
57024;BME280;42916;54.346;18.562;2023-05-19T05:11:20;101826.27;;;8.78;87.27
57024;BME280;42916;54.346;18.562;2023-05-19T05:13:47;101832.45;;;8.80;86.92
57024;BME280;42916;54.346;18.562;2023-05-19T05:16:14;101828.77;;;8.81;86.55
57024;BME280;42916;54.346;18.562;2023-05-19T05:18:42;101830.31;;;8.84;86.75
57024;BME280;42916;54.346;18.562;2023-05-19T05:21:10;101831.31;;;8.89;86.65
57024;BME280;42916;54.346;18.562;2023-05-19T05:23:37;101829.66;;;8.93;86.39
57024;BME280;42916;54.346;18.562;2023-05-19T05:26:09;101828.35;;;8.98;86.21
57024;BME280;42916;54.346;18.562;2023-05-19T05:28:40;101825.21;;;9.03;86.03
57024;BME280;42916;54.346;18.562;2023-05-19T05:31:07;101827.02;;;9.09;86.21
57024;BME280;42916;54.346;18.562;2023-05-19T05:33:34;101824.13;;;9.14;86.10
57024;BME280;42916;54.346;18.562;2023-05-19T05:36:02;101823.58;;;9.21;85.76
57024;BME280;42916;54.346;18.562;2023-05-19T05:38:29;101825.48;;;9.27;85.74
57024;BME280;42916;54.346;18.562;2023-05-19T05:40:56;101826.30;;;9.33;85.48
57024;BME280;42916;54.346;18.562;2023-05-19T05:43:23;101823.48;;;9.40;85.55
57024;BME280;42916;54.346;18.562;2023-05-19T05:45:55;101824.27;;;9.48;85.46
57024;BME280;42916;54.346;18.562;2023-05-19T05:48:22;101825.55;;;9.54;85.14
57024;BME280;42916;54.346;18.562;2023-05-19T05:50:49;101827.08;;;9.58;84.96
57024;BME280;42916;54.346;18.562;2023-05-19T05:53:23;101827.56;;;9.61;84.42
57024;BME280;42916;54.346;18.562;2023-05-19T05:55:52;101830.95;;;9.65;84.50
57024;BME280;42916;54.346;18.562;2023-05-19T05:58:20;101837.79;;;9.71;84.41
57024;BME280;42916;54.346;18.562;2023-05-19T06:00:48;101830.60;;;9.79;84.29
57024;BME280;42916;54.346;18.562;2023-05-19T06:03:17;101826.11;;;9.85;83.97
57024;BME280;42916;54.346;18.562;2023-05-19T06:05:44;101831.39;;;9.93;83.76
57024;BME280;42916;54.346;18.562;2023-05-19T06:08:10;101832.10;;;10.02;83.73
57024;BME280;42916;54.346;18.562;2023-05-19T06:10:37;101830.09;;;10.11;83.67
57024;BME280;42916;54.346;18.562;2023-05-19T06:13:07;101832.91;;;10.21;83.62
57024;BME280;42916;54.346;18.562;2023-05-19T06:15:38;101832.00;;;10.28;83.31
57024;BME280;42916;54.346;18.562;2023-05-19T06:18:19;101840.98;;;10.37;82.84
57024;BME280;42916;54.346;18.562;2023-05-19T06:20:47;101838.23;;;10.41;82.61
57024;BME280;42916;54.346;18.562;2023-05-19T06:23:14;101840.18;;;10.45;82.43
57024;BME280;42916;54.346;18.562;2023-05-19T06:25:41;101838.05;;;10.49;82.52
57024;BME280;42916;54.346;18.562;2023-05-19T06:28:08;101840.14;;;10.58;82.57
57024;BME280;42916;54.346;18.562;2023-05-19T06:30:35;101845.10;;;10.67;82.65
57024;BME280;42916;54.346;18.562;2023-05-19T06:33:10;101844.77;;;10.71;82.32
57024;BME280;42916;54.346;18.562;2023-05-19T06:35:37;101847.29;;;10.71;81.72
57024;BME280;42916;54.346;18.562;2023-05-19T06:38:04;101845.23;;;10.67;81.54
57024;BME280;42916;54.346;18.562;2023-05-19T06:40:32;101845.98;;;10.67;81.68
57024;BME280;42916;54.346;18.562;2023-05-19T06:42:59;101846.02;;;10.71;81.51
57024;BME280;42916;54.346;18.562;2023-05-19T06:45:39;101849.44;;;10.74;81.61
57024;BME280;42916;54.346;18.562;2023-05-19T06:48:07;101848.93;;;10.80;81.90
57024;BME280;42916;54.346;18.562;2023-05-19T06:50:35;101849.18;;;10.85;81.60
57024;BME280;42916;54.346;18.562;2023-05-19T06:53:01;101848.56;;;10.90;81.59
57024;BME280;42916;54.346;18.562;2023-05-19T06:55:29;101845.83;;;10.97;81.41
57024;BME280;42916;54.346;18.562;2023-05-19T06:57:56;101841.92;;;11.04;81.30
57024;BME280;42916;54.346;18.562;2023-05-19T07:00:22;101840.44;;;11.14;81.12
57024;BME280;42916;54.346;18.562;2023-05-19T07:02:50;101840.52;;;11.22;80.87
57024;BME280;42916;54.346;18.562;2023-05-19T07:05:17;101839.93;;;11.31;80.83
57024;BME280;42916;54.346;18.562;2023-05-19T07:07:48;101841.11;;;11.36;80.01
57024;BME280;42916;54.346;18.562;2023-05-19T07:10:17;101836.66;;;11.32;79.81
57024;BME280;42916;54.346;18.562;2023-05-19T07:12:45;101832.34;;;11.28;79.54
57024;BME280;42916;54.346;18.562;2023-05-19T07:15:12;101835.94;;;11.28;79.77
57024;BME280;42916;54.346;18.562;2023-05-19T07:17:39;101833.27;;;11.27;79.67
57024;BME280;42916;54.346;18.562;2023-05-19T07:20:06;101835.14;;;11.28;79.46
57024;BME280;42916;54.346;18.562;2023-05-19T07:22:36;101836.14;;;11.29;79.29
57024;BME280;42916;54.346;18.562;2023-05-19T07:25:05;101836.16;;;11.31;79.19
57024;BME280;42916;54.346;18.562;2023-05-19T07:27:33;101841.21;;;11.34;79.20
57024;BME280;42916;54.346;18.562;2023-05-19T07:29:59;101842.24;;;11.44;79.50
57024;BME280;42916;54.346;18.562;2023-05-19T07:32:26;101839.39;;;11.56;79.22
57024;BME280;42916;54.346;18.562;2023-05-19T07:34:53;101832.29;;;11.61;78.34
57024;BME280;42916;54.346;18.562;2023-05-19T07:37:20;101835.42;;;11.62;78.03
57024;BME280;42916;54.346;18.562;2023-05-19T07:39:46;101834.56;;;11.64;77.60
57024;BME280;42916;54.346;18.562;2023-05-19T07:42:13;101833.94;;;11.63;77.40
57024;BME280;42916;54.346;18.562;2023-05-19T07:44:40;101833.02;;;11.62;76.80
57024;BME280;42916;54.346;18.562;2023-05-19T07:47:07;101831.92;;;11.58;76.78
57024;BME280;42916;54.346;18.562;2023-05-19T07:49:33;101836.55;;;11.59;76.83
57024;BME280;42916;54.346;18.562;2023-05-19T07:52:00;101842.43;;;11.61;76.65
57024;BME280;42916;54.346;18.562;2023-05-19T07:54:27;101844.77;;;11.69;76.91
57024;BME280;42916;54.346;18.562;2023-05-19T07:56:54;101847.35;;;11.82;76.78
57024;BME280;42916;54.346;18.562;2023-05-19T07:59:20;101851.57;;;12.03;76.88
57024;BME280;42916;54.346;18.562;2023-05-19T08:01:47;101850.02;;;12.19;76.25
57024;BME280;42916;54.346;18.562;2023-05-19T08:04:14;101844.11;;;12.27;75.45
57024;BME280;42916;54.346;18.562;2023-05-19T08:06:41;101842.60;;;12.37;75.36
57024;BME280;42916;54.346;18.562;2023-05-19T08:09:10;101845.29;;;12.48;74.42
57024;BME280;42916;54.346;18.562;2023-05-19T08:11:37;101849.75;;;12.56;74.29
57024;BME280;42916;54.346;18.562;2023-05-19T08:14:04;101849.69;;;12.68;73.98
57024;BME280;42916;54.346;18.562;2023-05-19T08:16:31;101850.23;;;12.77;73.57
57024;BME280;42916;54.346;18.562;2023-05-19T08:18:57;101850.26;;;12.80;72.97
57024;BME280;42916;54.346;18.562;2023-05-19T08:21:27;101842.90;;;12.83;72.32
57024;BME280;42916;54.346;18.562;2023-05-19T08:23:54;101846.73;;;12.88;71.77
57024;BME280;42916;54.346;18.562;2023-05-19T08:26:22;101838.92;;;12.97;71.22
57024;BME280;42916;54.346;18.562;2023-05-19T08:28:49;101838.20;;;12.96;70.74
57024;BME280;42916;54.346;18.562;2023-05-19T08:31:16;101842.64;;;12.97;70.68
57024;BME280;42916;54.346;18.562;2023-05-19T08:33:43;101844.87;;;13.04;70.54
57024;BME280;42916;54.346;18.562;2023-05-19T08:36:11;101840.36;;;13.12;70.07
57024;BME280;42916;54.346;18.562;2023-05-19T08:38:37;101842.79;;;13.17;69.41
57024;BME280;42916;54.346;18.562;2023-05-19T08:41:04;101838.48;;;13.20;69.35
57024;BME280;42916;54.346;18.562;2023-05-19T08:43:31;101841.65;;;13.17;68.66
57024;BME280;42916;54.346;18.562;2023-05-19T08:45:58;101841.77;;;13.13;68.54
57024;BME280;42916;54.346;18.562;2023-05-19T08:48:28;101842.81;;;13.11;68.27
57024;BME280;42916;54.346;18.562;2023-05-19T08:51:16;101845.43;;;13.07;68.36
57024;BME280;42916;54.346;18.562;2023-05-19T08:53:50;101840.77;;;13.08;68.52
57024;BME280;42916;54.346;18.562;2023-05-19T08:56:21;101840.00;;;13.03;68.41
57024;BME280;42916;54.346;18.562;2023-05-19T08:58:49;101841.88;;;13.02;68.48
57024;BME280;42916;54.346;18.562;2023-05-19T09:01:17;101838.39;;;13.11;68.89
57024;BME280;42916;54.346;18.562;2023-05-19T09:03:45;101837.70;;;13.22;68.61
57024;BME280;42916;54.346;18.562;2023-05-19T09:06:14;101845.35;;;13.30;68.88
57024;BME280;42916;54.346;18.562;2023-05-19T09:08:42;101846.40;;;13.33;68.56
57024;BME280;42916;54.346;18.562;2023-05-19T09:11:09;101849.01;;;13.34;68.70
57024;BME280;42916;54.346;18.562;2023-05-19T09:13:36;101850.90;;;13.33;68.85
57024;BME280;42916;54.346;18.562;2023-05-19T09:16:03;101846.17;;;13.35;69.15
57024;BME280;42916;54.346;18.562;2023-05-19T09:18:30;101846.46;;;13.38;69.40
57024;BME280;42916;54.346;18.562;2023-05-19T09:21:00;101843.59;;;13.47;69.68
57024;BME280;42916;54.346;18.562;2023-05-19T09:23:32;101839.34;;;13.57;69.74
57024;BME280;42916;54.346;18.562;2023-05-19T09:26:04;101838.98;;;13.66;69.31
57024;BME280;42916;54.346;18.562;2023-05-19T09:28:35;101837.16;;;13.70;69.09
57024;BME280;42916;54.346;18.562;2023-05-19T09:31:03;101831.28;;;13.66;68.82
57024;BME280;42916;54.346;18.562;2023-05-19T09:33:52;101831.08;;;13.59;68.61
57024;BME280;42916;54.346;18.562;2023-05-19T09:36:18;101833.20;;;13.51;68.75
57024;BME280;42916;54.346;18.562;2023-05-19T09:38:45;101835.92;;;13.41;68.83
57024;BME280;42916;54.346;18.562;2023-05-19T09:41:13;101838.86;;;13.31;68.73
57024;BME280;42916;54.346;18.562;2023-05-19T09:43:40;101836.05;;;13.26;69.06
57024;BME280;42916;54.346;18.562;2023-05-19T09:46:09;101832.14;;;13.31;69.39
57024;BME280;42916;54.346;18.562;2023-05-19T09:48:39;101832.22;;;13.36;69.20
57024;BME280;42916;54.346;18.562;2023-05-19T09:51:07;101827.39;;;13.31;68.73
57024;BME280;42916;54.346;18.562;2023-05-19T09:53:35;101823.05;;;13.24;68.47
57024;BME280;42916;54.346;18.562;2023-05-19T09:56:02;101823.05;;;13.16;68.50
57024;BME280;42916;54.346;18.562;2023-05-19T09:58:32;101821.41;;;13.14;68.75
57024;BME280;42916;54.346;18.562;2023-05-19T10:01:03;101826.70;;;13.14;68.86
57024;BME280;42916;54.346;18.562;2023-05-19T10:03:30;101827.08;;;13.16;68.64
57024;BME280;42916;54.346;18.562;2023-05-19T10:06:00;101830.56;;;13.20;68.85
57024;BME280;42916;54.346;18.562;2023-05-19T10:08:27;101827.85;;;13.27;68.84
57024;BME280;42916;54.346;18.562;2023-05-19T10:10:56;101830.99;;;13.31;68.57
57024;BME280;42916;54.346;18.562;2023-05-19T10:13:24;101831.58;;;13.29;67.79
57024;BME280;42916;54.346;18.562;2023-05-19T10:15:52;101825.23;;;13.21;67.43
57024;BME280;42916;54.346;18.562;2023-05-19T10:18:19;101824.67;;;13.13;67.30
57024;BME280;42916;54.346;18.562;2023-05-19T10:20:48;101824.95;;;13.16;67.44
57024;BME280;42916;54.346;18.562;2023-05-19T10:23:15;101823.12;;;13.12;67.22
57024;BME280;42916;54.346;18.562;2023-05-19T10:25:43;101823.13;;;13.04;66.75
57024;BME280;42916;54.346;18.562;2023-05-19T10:28:15;101823.72;;;12.90;66.70
57024;BME280;42916;54.346;18.562;2023-05-19T10:30:48;101817.55;;;12.86;67.08
57024;BME280;42916;54.346;18.562;2023-05-19T10:33:17;101820.55;;;12.85;66.87
57024;BME280;42916;54.346;18.562;2023-05-19T10:36:22;101820.58;;;12.74;66.45
57024;BME280;42916;54.346;18.562;2023-05-19T10:38:57;101815.91;;;12.63;66.46
57024;BME280;42916;54.346;18.562;2023-05-19T10:41:27;101815.66;;;12.53;66.57
57024;BME280;42916;54.346;18.562;2023-05-19T10:46:26;101816.92;;;12.35;66.25
57024;BME280;42916;54.346;18.562;2023-05-19T10:48:54;101814.97;;;12.23;66.49
57024;BME280;42916;54.346;18.562;2023-05-19T10:51:30;101818.73;;;12.15;66.64
57024;BME280;42916;54.346;18.562;2023-05-19T10:54:00;101817.71;;;12.13;66.76
57024;BME280;42916;54.346;18.562;2023-05-19T10:56:32;101815.60;;;12.10;66.83
57024;BME280;42916;54.346;18.562;2023-05-19T10:59:02;101819.10;;;12.06;66.50
57024;BME280;42916;54.346;18.562;2023-05-19T11:01:33;101814.89;;;12.01;66.60
57024;BME280;42916;54.346;18.562;2023-05-19T11:04:08;101816.61;;;12.03;66.66
57024;BME280;42916;54.346;18.562;2023-05-19T11:06:39;101814.15;;;11.96;66.27
57024;BME280;42916;54.346;18.562;2023-05-19T11:09:14;101813.84;;;11.95;66.31
57024;BME280;42916;54.346;18.562;2023-05-19T11:11:46;101817.66;;;11.95;66.15
57024;BME280;42916;54.346;18.562;2023-05-19T11:14:16;101815.69;;;11.90;65.73
57024;BME280;42916;54.346;18.562;2023-05-19T11:16:49;101816.55;;;11.84;65.46
57024;BME280;42916;54.346;18.562;2023-05-19T11:19:30;101814.86;;;11.80;65.54
57024;BME280;42916;54.346;18.562;2023-05-19T11:22:09;101814.92;;;11.79;65.44
57024;BME280;42916;54.346;18.562;2023-05-19T11:24:43;101814.38;;;11.82;65.62
57024;BME280;42916;54.346;18.562;2023-05-19T11:27:27;101814.31;;;11.88;65.46
57024;BME280;42916;54.346;18.562;2023-05-19T11:29:58;101814.64;;;11.94;65.25
57024;BME280;42916;54.346;18.562;2023-05-19T11:32:27;101813.12;;;11.95;64.58
57024;BME280;42916;54.346;18.562;2023-05-19T11:34:55;101818.63;;;11.97;64.47
57024;BME280;42916;54.346;18.562;2023-05-19T11:37:22;101816.13;;;12.03;64.45
57024;BME280;42916;54.346;18.562;2023-05-19T11:39:50;101822.00;;;12.09;63.57
57024;BME280;42916;54.346;18.562;2023-05-19T11:42:17;101823.73;;;12.14;63.85
57024;BME280;42916;54.346;18.562;2023-05-19T11:44:44;101825.85;;;12.25;63.73
57024;BME280;42916;54.346;18.562;2023-05-19T11:47:13;101831.13;;;12.37;63.46
57024;BME280;42916;54.346;18.562;2023-05-19T11:49:44;101830.15;;;12.44;63.13
57024;BME280;42916;54.346;18.562;2023-05-19T11:52:13;101833.89;;;12.57;62.82
57024;BME280;42916;54.346;18.562;2023-05-19T11:54:40;101838.47;;;12.66;62.02
57024;BME280;42916;54.346;18.562;2023-05-19T11:57:08;101837.76;;;12.74;61.49
57024;BME280;42916;54.346;18.562;2023-05-19T11:59:39;101840.41;;;12.73;60.97
57024;BME280;42916;54.346;18.562;2023-05-19T12:02:20;101845.02;;;12.72;60.20
57024;BME280;42916;54.346;18.562;2023-05-19T12:04:47;101851.09;;;12.72;60.57
57024;BME280;42916;54.346;18.562;2023-05-19T12:07:15;101855.05;;;12.88;61.16
57024;BME280;42916;54.346;18.562;2023-05-19T12:09:46;101861.31;;;13.15;61.01
57024;BME280;42916;54.346;18.562;2023-05-19T12:12:17;101862.05;;;13.39;60.72
57024;BME280;42916;54.346;18.562;2023-05-19T12:14:49;101863.88;;;13.61;60.19
57024;BME280;42916;54.346;18.562;2023-05-19T12:17:19;101872.97;;;13.74;59.59
57024;BME280;42916;54.346;18.562;2023-05-19T12:19:47;101877.38;;;13.91;59.33
57024;BME280;42916;54.346;18.562;2023-05-19T12:22:16;101878.33;;;14.01;58.53
57024;BME280;42916;54.346;18.562;2023-05-19T12:24:43;101878.71;;;14.09;58.38
57024;BME280;42916;54.346;18.562;2023-05-19T12:29:54;101881.40;;;14.23;58.06
57024;BME280;42916;54.346;18.562;2023-05-19T12:32:47;101885.83;;;14.45;58.50
57024;BME280;42916;54.346;18.562;2023-05-19T12:35:16;101888.27;;;14.53;58.50
57024;BME280;42916;54.346;18.562;2023-05-19T12:37:44;101886.51;;;14.58;58.54
57024;BME280;42916;54.346;18.562;2023-05-19T12:40:14;101885.16;;;14.50;57.69
57024;BME280;42916;54.346;18.562;2023-05-19T12:42:45;101884.79;;;14.30;58.01
57024;BME280;42916;54.346;18.562;2023-05-19T12:45:11;101882.93;;;14.17;57.82
57024;BME280;42916;54.346;18.562;2023-05-19T12:47:37;101884.33;;;14.08;58.29
57024;BME280;42916;54.346;18.562;2023-05-19T12:50:04;101886.60;;;13.95;58.51
57024;BME280;42916;54.346;18.562;2023-05-19T12:52:33;101884.93;;;13.89;58.92
57024;BME280;42916;54.346;18.562;2023-05-19T12:57:39;101879.46;;;13.74;60.06
57024;BME280;42916;54.346;18.562;2023-05-19T13:00:17;101877.21;;;13.68;60.43
57024;BME280;42916;54.346;18.562;2023-05-19T13:03:01;101872.67;;;13.68;60.74
57024;BME280;42916;54.346;18.562;2023-05-19T13:05:32;101872.95;;;13.71;61.25
57024;BME280;42916;54.346;18.562;2023-05-19T13:07:59;101872.27;;;13.65;61.62
57024;BME280;42916;54.346;18.562;2023-05-19T13:10:27;101869.73;;;13.52;62.30
57024;BME280;42916;54.346;18.562;2023-05-19T13:12:54;101866.59;;;13.45;62.63
57024;BME280;42916;54.346;18.562;2023-05-19T13:15:25;101867.11;;;13.42;62.96
57024;BME280;42916;54.346;18.562;2023-05-19T13:17:53;101864.48;;;13.40;62.96
57024;BME280;42916;54.346;18.562;2023-05-19T13:20:20;101861.88;;;13.35;63.55
57024;BME280;42916;54.346;18.562;2023-05-19T13:22:47;101867.05;;;13.33;63.85
57024;BME280;42916;54.346;18.562;2023-05-19T13:25:14;101862.34;;;13.30;64.47
57024;BME280;42916;54.346;18.562;2023-05-19T13:27:40;101860.94;;;13.20;64.50